CYPS weather

Pemberton Regional Airport
Pemberton, British Columbia, Canada

Public forecast

Using degrees Celsius for public forecast. Weather courtesy of forecast.io.

Current aviation weather report (METAR) for Pemberton Regional Airport

Report is more than 6 hours old.

Retrieved 2010/04/03 06:00 UTC (10 years ago):

CYPS 030600Z 00000KT 10SM -RA FEW010 BKN025 OVC039 03/03 A2925 RMK SF1SC4SC3 LAST OB/NEXT UNKNOWN SLP911

Aviation forecast (TAF) for Pemberton Regional Airport

Forecast is more than 12 hours old.

Retrieved 2010/04/03 00:39 UTC (10 years ago):

TAF CYPS 030039Z 0301/0401 VRB03KT P6SM -RA FEW010 BKN025 OVC040 TEMPO 0301/0303 5SM -RA BR SCT006 BKN020 FM030300 VRB03KT 6SM -RA SCT010 OVC020 TEMPO 0303/0308 3SM -RA BR OVC008 FM030800 VRB03KT P6SM SCT015 BKN030 OVC050 TEMPO 0308/0401 P6SM -SHRA BKN015 RMK NXT FCST BY 030700Z